IN85 weather

Bowlin Airport
Huntington, Indiana, United States

Public forecast

Using degrees Fahrenheit for public forecast. Weather courtesy of forecast.io.

METAR (pilot weather report)

Closest report is Huntington Municipal Airport, 1.5 nm (2.8 km) NE. Retrieved 2019/04/21 08:55 UTC (2 hours ago):

KHHG 210855Z AUTO 28003KT 10SM CLR 03/02 A2992 RMK AO2 T00300024

TAF (pilot weather forecast)

Closest forecast is Fort Wayne International Airport, 15.6 nm (28.9 km) ENE. Retrieved 2019/04/21 06:24 UTC (4 hours ago):

TAF KFWA 210521Z 2106/2206 24005KT P6SM SCT004 BKN070 FM210800 24003KT 4SM BR SCT070 FM211000 24003KT 1/2SM FG VV002 FM211300 24006KT P6SM SCT250